Time;durP1;ratioP1;P1;durP2;ratioP2;P2;SDS_P1;SDS_P2;PMS_P1;PMS_P2;Temp;Humidity;BMP_temperature;BMP_pressure;BME280_temperature;BME280_humidity;BME280_pressure;Samples;Min_cycle;Max_cycle;Signal;HPM_P1;HPM_P2
2021/08/03 00:00:29;;;;;;;12.13;9.80;;;;;;;;;;5093867;28;20454;-72
2021/08/03 00:03:01;;;;;;;10.07;9.07;;;;;;;;;;5093813;28;20440;-73
2021/08/03 00:05:31;;;;;;;11.27;9.03;;;;;;;;;;5093119;28;20428;-73
2021/08/03 00:08:00;;;;;;;11.70;10.50;;;;;;;;;;5093023;28;20997;-72
2021/08/03 00:10:27;;;;;;;10.40;8.37;;;;;;;;;;5092952;28;20475;-73
2021/08/03 00:12:55;;;;;;;11.20;10.00;;;;;;;;;;5092954;28;20451;-74
2021/08/03 00:15:23;;;;;;;11.43;10.17;;;;;;;;;;5093325;28;20467;-73
2021/08/03 00:17:53;;;;;;;11.10;9.87;;;;;;;;;;5095788;28;20475;-73
2021/08/03 00:20:23;;;;;;;15.03;10.33;;;;;;;;;;5096869;28;20429;-73
2021/08/03 00:22:50;;;;;;;11.93;10.80;;;;;;;;;;5097100;28;20526;-72
2021/08/03 00:25:18;;;;;;;14.37;12.90;;;;;;;;;;5097097;28;20462;-72
2021/08/03 00:27:45;;;;;;;13.30;10.90;;;;;;;;;;5096601;28;20494;-72
2021/08/03 00:30:13;;;;;;;11.83;10.23;;;;;;;;;;5096980;28;20486;-72
2021/08/03 00:32:40;;;;;;;13.07;11.47;;;;;;;;;;5097013;28;20446;-72
2021/08/03 00:35:07;;;;;;;16.93;11.40;;;;;;;;;;5097024;28;20440;-72
2021/08/03 00:37:37;;;;;;;13.50;11.23;;;;;;;;;;5096861;28;20435;-72
2021/08/03 00:40:05;;;;;;;15.63;12.80;;;;;;;;;;5096744;28;20439;-72
2021/08/03 00:42:32;;;;;;;14.37;12.97;;;;;;;;;;5096418;28;20448;-72
2021/08/03 00:45:00;;;;;;;13.50;12.10;;;;;;;;;;5096708;28;20436;-72
2021/08/03 00:47:27;;;;;;;13.43;12.03;;;;;;;;;;5096733;28;20855;-71
2021/08/03 00:49:54;;;;;;;14.03;12.50;;;;;;;;;;5096484;28;20480;-71
2021/08/03 00:52:21;;;;;;;12.67;11.43;;;;;;;;;;5096533;28;20468;-70
2021/08/03 00:54:50;;;;;;;14.17;12.67;;;;;;;;;;5096125;28;20444;-70
2021/08/03 00:57:17;;;;;;;16.23;13.50;;;;;;;;;;5096441;28;20435;-70
2021/08/03 00:59:44;;;;;;;13.77;12.20;;;;;;;;;;5096662;28;20440;-70
2021/08/03 01:02:12;;;;;;;13.50;12.07;;;;;;;;;;5096237;28;20440;-71
2021/08/03 01:04:39;;;;;;;14.30;13.00;;;;;;;;;;5095879;28;20446;-71
2021/08/03 01:07:10;;;;;;;16.10;13.13;;;;;;;;;;5096227;28;20440;-70
2021/08/03 01:09:50;;;;;;;15.30;13.33;;;;;;;;;;5096240;28;20463;-71
2021/08/03 01:12:25;;;;;;;15.93;14.20;;;;;;;;;;5096167;28;20431;-71
2021/08/03 01:14:57;;;;;;;17.07;13.17;;;;;;;;;;5096539;28;20516;-71
2021/08/03 01:17:30;;;;;;;19.80;14.97;;;;;;;;;;5095680;28;20428;-71
2021/08/03 01:20:02;;;;;;;20.87;14.73;;;;;;;;;;5096436;28;20447;-71
2021/08/03 01:22:57;;;;;;;17.27;15.37;;;;;;;;;;5096427;28;20428;-71
2021/08/03 01:25:27;;;;;;;17.60;14.30;;;;;;;;;;5096363;28;20435;-71
2021/08/03 01:28:05;;;;;;;15.77;14.17;;;;;;;;;;5095120;28;20471;-71
2021/08/03 01:30:33;;;;;;;17.80;13.80;;;;;;;;;;5095368;28;20464;-71
2021/08/03 01:33:01;;;;;;;19.27;14.37;;;;;;;;;;5095402;28;20953;-72
2021/08/03 01:35:29;;;;;;;19.40;14.20;;;;;;;;;;5096084;28;20518;-71
2021/08/03 01:37:59;;;;;;;15.43;13.33;;;;;;;;;;5095576;28;20486;-71
2021/08/03 01:40:26;;;;;;;16.67;14.20;;;;;;;;;;5095226;28;20450;-71
2021/08/03 01:42:53;;;;;;;18.47;15.00;;;;;;;;;;5095455;28;20448;-72
2021/08/03 01:45:24;;;;;;;14.83;13.27;;;;;;;;;;5095173;28;20446;-71
2021/08/03 01:47:51;;;;;;;17.63;15.83;;;;;;;;;;5095114;28;20429;-72
2021/08/03 01:50:19;;;;;;;16.20;13.80;;;;;;;;;;5095234;28;20564;-72
2021/08/03 01:52:46;;;;;;;17.57;15.13;;;;;;;;;;5095822;28;20440;-71
2021/08/03 01:55:13;;;;;;;15.87;13.77;;;;;;;;;;5095180;28;20887;-72
2021/08/03 01:57:42;;;;;;;14.87;13.23;;;;;;;;;;5094736;28;20451;-72
2021/08/03 02:00:10;;;;;;;16.43;14.10;;;;;;;;;;5095542;28;20452;-72
2021/08/03 02:02:39;;;;;;;15.93;14.43;;;;;;;;;;5095537;28;20440;-71
2021/08/03 02:05:07;;;;;;;18.40;14.00;;;;;;;;;;5094742;28;20444;-72
2021/08/03 02:07:35;;;;;;;15.53;13.93;;;;;;;;;;5094640;28;20455;-72
2021/08/03 02:10:02;;;;;;;18.50;14.53;;;;;;;;;;5095085;28;20475;-72
2021/08/03 02:12:32;;;;;;;19.80;15.97;;;;;;;;;;5094877;28;20442;-72
2021/08/03 02:15:00;;;;;;;21.40;16.37;;;;;;;;;;5095538;28;20447;-72
2021/08/03 02:17:27;;;;;;;17.40;15.40;;;;;;;;;;5094550;28;20443;-72
2021/08/03 02:19:55;;;;;;;18.50;16.70;;;;;;;;;;5095085;28;20537;-72
2021/08/03 02:22:23;;;;;;;19.00;17.00;;;;;;;;;;5094822;28;20798;-72
2021/08/03 02:24:50;;;;;;;18.63;16.73;;;;;;;;;;5094421;28;20450;-71
2021/08/03 02:27:17;;;;;;;22.30;18.37;;;;;;;;;;5093996;28;21087;-72
2021/08/03 02:29:45;;;;;;;20.30;16.97;;;;;;;;;;5094184;28;20464;-72
2021/08/03 02:32:15;;;;;;;20.57;17.70;;;;;;;;;;5094296;28;20444;-72
2021/08/03 02:34:44;;;;;;;20.43;17.90;;;;;;;;;;5095129;28;20824;-72
2021/08/03 02:37:13;;;;;;;22.70;18.07;;;;;;;;;;5094251;28;20444;-72
2021/08/03 02:39:41;;;;;;;19.10;17.00;;;;;;;;;;5093686;28;20448;-72
2021/08/03 02:42:09;;;;;;;20.53;18.33;;;;;;;;;;5094537;28;20856;-72
2021/08/03 02:44:37;;;;;;;20.90;17.43;;;;;;;;;;5094041;28;20448;-72
2021/08/03 02:47:17;;;;;;;24.40;18.20;;;;;;;;;;5094262;28;20444;-72
2021/08/03 02:49:48;;;;;;;19.63;17.63;;;;;;;;;;5093963;28;20470;-72
2021/08/03 02:52:17;;;;;;;18.93;17.13;;;;;;;;;;5094179;28;20432;-73
2021/08/03 02:54:46;;;;;;;21.03;18.37;;;;;;;;;;5093888;28;20949;-73
2021/08/03 02:57:14;;;;;;;21.50;19.20;;;;;;;;;;5094746;28;20450;-72
2021/08/03 02:59:44;;;;;;;22.07;19.30;;;;;;;;;;5093796;28;20549;-72
2021/08/03 03:02:13;;;;;;;24.63;19.50;;;;;;;;;;5095227;28;20440;-72
2021/08/03 03:04:42;;;;;;;24.80;20.93;;;;;;;;;;5094048;28;20446;-72
2021/08/03 03:07:13;;;;;;;23.07;20.57;;;;;;;;;;5093995;28;20436;-72
2021/08/03 03:09:42;;;;;;;23.50;20.70;;;;;;;;;;5094345;28;20475;-72
2021/08/03 03:12:10;;;;;;;22.60;20.10;;;;;;;;;;5093909;28;20440;-72
2021/08/03 03:14:39;;;;;;;23.70;21.30;;;;;;;;;;5093593;28;20440;-72
2021/08/03 03:17:07;;;;;;;25.33;22.17;;;;;;;;;;5093562;28;20452;-72
2021/08/03 03:19:37;;;;;;;22.20;19.90;;;;;;;;;;5094046;28;20766;-72
2021/08/03 03:22:05;;;;;;;23.23;20.77;;;;;;;;;;5093783;28;20436;-72
2021/08/03 03:24:33;;;;;;;29.13;22.10;;;;;;;;;;5093453;28;20926;-72
2021/08/03 03:27:03;;;;;;;23.57;21.17;;;;;;;;;;5093932;28;20440;-72
2021/08/03 03:29:30;;;;;;;25.90;22.90;;;;;;;;;;5093707;28;20514;-72
2021/08/03 03:31:58;;;;;;;25.30;22.70;;;;;;;;;;5093681;28;20530;-72
2021/08/03 03:34:26;;;;;;;28.50;23.90;;;;;;;;;;5093881;28;20850;-72
2021/08/03 03:36:54;;;;;;;28.47;24.40;;;;;;;;;;5093660;28;20787;-72
2021/08/03 03:39:22;;;;;;;25.93;22.50;;;;;;;;;;5093278;28;20443;-71
2021/08/03 03:41:51;;;;;;;25.77;23.10;;;;;;;;;;5093977;28;20454;-71
2021/08/03 03:44:20;;;;;;;27.77;24.97;;;;;;;;;;5093580;28;20439;-71
2021/08/03 03:46:50;;;;;;;30.50;24.67;;;;;;;;;;5093524;28;20435;-71
2021/08/03 03:49:19;;;;;;;25.90;23.17;;;;;;;;;;5093850;28;20442;-71
2021/08/03 03:51:47;;;;;;;25.77;22.60;;;;;;;;;;5096502;28;20483;-71
2021/08/03 03:54:15;;;;;;;27.47;24.50;;;;;;;;;;5098254;28;20435;-71
2021/08/03 03:56:43;;;;;;;30.30;24.87;;;;;;;;;;5097915;28;20443;-71
2021/08/03 03:59:12;;;;;;;30.50;25.67;;;;;;;;;;5097540;28;20443;-71
2021/08/03 04:01:42;;;;;;;31.47;24.03;;;;;;;;;;5097639;28;20448;-71
2021/08/03 04:04:10;;;;;;;24.87;22.33;;;;;;;;;;5098004;28;20515;-72
2021/08/03 04:06:38;;;;;;;29.27;23.60;;;;;;;;;;5097382;28;20443;-71
2021/08/03 04:09:05;;;;;;;26.37;23.47;;;;;;;;;;5097455;28;20440;-72
2021/08/03 04:11:32;;;;;;;28.40;24.70;;;;;;;;;;5097634;28;20475;-71
2021/08/03 04:14:00;;;;;;;31.90;23.57;;;;;;;;;;5097272;28;20446;-72
2021/08/03 04:16:27;;;;;;;27.03;23.33;;;;;;;;;;5097184;28;20437;-73
2021/08/03 04:18:56;;;;;;;24.53;21.60;;;;;;;;;;5097192;28;20443;-75
2021/08/03 04:21:23;;;;;;;26.80;23.90;;;;;;;;;;5097199;28;20439;-77
2021/08/03 04:23:50;;;;;;;25.57;22.97;;;;;;;;;;5096781;28;20934;-76
2021/08/03 04:26:17;;;;;;;26.70;23.20;;;;;;;;;;5097229;28;20948;-74
2021/08/03 04:28:44;;;;;;;29.80;23.50;;;;;;;;;;5096709;28;20459;-71
2021/08/03 04:31:11;;;;;;;26.83;24.03;;;;;;;;;;5097689;28;20486;-71
2021/08/03 04:33:39;;;;;;;38.37;27.40;;;;;;;;;;5106688;28;20443;-71
2021/08/03 04:36:07;;;;;;;31.90;28.10;;;;;;;;;;5116855;28;20435;-74
2021/08/03 04:38:34;;;;;;;31.20;27.20;;;;;;;;;;5117073;28;20525;-74
2021/08/03 04:41:01;;;;;;;28.57;25.50;;;;;;;;;;5117141;28;20461;-74
2021/08/03 04:43:29;;;;;;;31.33;26.83;;;;;;;;;;5117333;28;20435;-74
2021/08/03 04:45:56;;;;;;;29.70;25.13;;;;;;;;;;5116795;28;21029;-73
2021/08/03 04:48:24;;;;;;;30.93;25.80;;;;;;;;;;5116714;28;20446;-74
2021/08/03 04:50:51;;;;;;;28.40;25.03;;;;;;;;;;5116474;28;20478;-72
2021/08/03 04:53:19;;;;;;;32.97;25.97;;;;;;;;;;5116794;28;20527;-74
2021/08/03 04:55:46;;;;;;;28.10;25.00;;;;;;;;;;5116898;28;20860;-75
2021/08/03 04:58:14;;;;;;;28.67;24.77;;;;;;;;;;5117748;28;20450;-74
2021/08/03 05:00:41;;;;;;;27.73;24.50;;;;;;;;;;5116671;28;20451;-74
2021/08/03 05:03:10;;;;;;;29.97;26.70;;;;;;;;;;5115834;28;20442;-74
2021/08/03 05:05:37;;;;;;;30.23;24.20;;;;;;;;;;5114304;28;20489;-74
2021/08/03 05:08:04;;;;;;;31.33;26.70;;;;;;;;;;5106927;28;20449;-73
2021/08/03 05:10:33;;;;;;;29.57;25.43;;;;;;;;;;5096542;28;20478;-74
2021/08/03 05:13:00;;;;;;;27.23;24.13;;;;;;;;;;5096120;28;20434;-71
2021/08/03 05:15:27;;;;;;;28.70;25.67;;;;;;;;;;5096095;28;20440;-74
2021/08/03 05:17:55;;;;;;;30.50;25.97;;;;;;;;;;5096007;28;20532;-74
2021/08/03 05:20:22;;;;;;;28.70;25.50;;;;;;;;;;5095674;28;20952;-77
2021/08/03 05:22:49;;;;;;;35.70;27.57;;;;;;;;;;5095927;28;20464;-77
2021/08/03 05:25:16;;;;;;;36.53;27.60;;;;;;;;;;5095701;28;20535;-77
2021/08/03 05:27:45;;;;;;;29.33;25.97;;;;;;;;;;5095425;28;20478;-77
2021/08/03 05:30:13;;;;;;;30.53;25.70;;;;;;;;;;5095781;28;20450;-77
2021/08/03 05:32:40;;;;;;;38.17;24.93;;;;;;;;;;5095392;28;20443;-77
2021/08/03 05:35:08;;;;;;;24.77;21.40;;;;;;;;;;5095764;28;20447;-78
2021/08/03 05:37:35;;;;;;;27.43;23.27;;;;;;;;;;5095621;28;20438;-77
2021/08/03 05:40:05;;;;;;;23.50;20.80;;;;;;;;;;5095349;28;20447;-78
2021/08/03 05:42:33;;;;;;;23.40;20.90;;;;;;;;;;5095959;28;20790;-78
2021/08/03 05:45:01;;;;;;;23.70;20.80;;;;;;;;;;5095560;28;20434;-78
2021/08/03 05:47:28;;;;;;;22.33;20.13;;;;;;;;;;5095423;28;20439;-77
2021/08/03 05:49:55;;;;;;;26.83;21.53;;;;;;;;;;5095076;28;20446;-77
2021/08/03 05:52:23;;;;;;;27.10;22.97;;;;;;;;;;5094997;28;20473;-77
2021/08/03 05:54:50;;;;;;;23.67;21.23;;;;;;;;;;5094981;28;20446;-78
2021/08/03 05:57:17;;;;;;;26.93;22.37;;;;;;;;;;5094802;28;20448;-77
2021/08/03 05:59:44;;;;;;;21.73;19.57;;;;;;;;;;5094875;28;20802;-77
2021/08/03 06:02:13;;;;;;;22.23;20.00;;;;;;;;;;5095160;28;20447;-78
2021/08/03 06:04:40;;;;;;;21.87;19.67;;;;;;;;;;5095090;28;20433;-77
2021/08/03 06:07:08;;;;;;;22.70;20.03;;;;;;;;;;5094853;28;20441;-78
2021/08/03 06:09:37;;;;;;;22.37;19.93;;;;;;;;;;5095266;28;20444;-78
2021/08/03 06:12:05;;;;;;;30.20;20.70;;;;;;;;;;5094606;28;20468;-78
2021/08/03 06:14:36;;;;;;;23.20;20.73;;;;;;;;;;5094908;28;20436;-79
2021/08/03 06:17:05;;;;;;;24.63;22.10;;;;;;;;;;5095068;28;20436;-79
2021/08/03 06:19:36;;;;;;;30.27;23.00;;;;;;;;;;5094889;28;20508;-77
2021/08/03 06:22:03;;;;;;;24.80;22.10;;;;;;;;;;5094656;28;20502;-78
2021/08/03 06:24:30;;;;;;;23.00;20.63;;;;;;;;;;5094728;28;20441;-77
2021/08/03 06:26:58;;;;;;;22.73;20.30;;;;;;;;;;5094244;28;20538;-78
2021/08/03 06:29:26;;;;;;;24.07;21.60;;;;;;;;;;5094604;28;20887;-78
2021/08/03 06:31:54;;;;;;;26.83;22.10;;;;;;;;;;5094211;28;20478;-78
2021/08/03 06:34:22;;;;;;;32.83;22.33;;;;;;;;;;5094312;28;20444;-78
2021/08/03 06:36:51;;;;;;;24.13;21.73;;;;;;;;;;5094232;28;21029;-78
2021/08/03 06:39:18;;;;;;;24.63;22.03;;;;;;;;;;5094405;28;20522;-77
2021/08/03 06:41:46;;;;;;;26.33;22.30;;;;;;;;;;5094211;28;20447;-77
2021/08/03 06:44:17;;;;;;;23.20;21.00;;;;;;;;;;5094053;28;20941;-78
2021/08/03 06:46:46;;;;;;;25.03;22.33;;;;;;;;;;5094504;28;20840;-78
2021/08/03 06:49:15;;;;;;;24.60;21.20;;;;;;;;;;5093972;28;20445;-78
2021/08/03 06:51:46;;;;;;;24.70;22.17;;;;;;;;;;5093807;28;20533;-78
2021/08/03 06:54:15;;;;;;;26.47;22.30;;;;;;;;;;5094608;28;20486;-78
2021/08/03 06:56:45;;;;;;;25.13;22.23;;;;;;;;;;5094087;28;20440;-78
2021/08/03 06:59:13;;;;;;;26.83;23.07;;;;;;;;;;5094920;28;20436;-78
2021/08/03 07:01:47;;;;;;;25.23;22.10;;;;;;;;;;5093894;28;21019;-79
2021/08/03 07:04:18;;;;;;;26.03;23.40;;;;;;;;;;5094210;28;20432;-78
2021/08/03 07:06:48;;;;;;;26.83;23.90;;;;;;;;;;5094492;28;20516;-77
2021/08/03 07:09:17;;;;;;;25.70;22.30;;;;;;;;;;5094042;28;20762;-79
2021/08/03 07:11:44;;;;;;;25.57;22.83;;;;;;;;;;5093992;28;20533;-79
2021/08/03 07:14:12;;;;;;;25.67;23.00;;;;;;;;;;5093769;28;20434;-79
2021/08/03 07:16:40;;;;;;;24.30;20.60;;;;;;;;;;5093995;28;20433;-78
2021/08/03 07:19:08;;;;;;;24.43;21.87;;;;;;;;;;5093965;28;20440;-78
2021/08/03 07:21:39;;;;;;;26.73;20.83;;;;;;;;;;5093616;28;20475;-79
2021/08/03 07:24:06;;;;;;;25.07;22.13;;;;;;;;;;5093947;28;20447;-79
2021/08/03 07:26:35;;;;;;;22.77;20.30;;;;;;;;;;5092975;28;20479;-78
2021/08/03 07:29:02;;;;;;;25.80;21.30;;;;;;;;;;5093202;28;21009;-77
2021/08/03 07:31:29;;;;;;;22.73;20.47;;;;;;;;;;5093183;28;20486;-78
2021/08/03 07:33:56;;;;;;;26.70;19.60;;;;;;;;;;5093658;28;20470;-78
2021/08/03 07:36:23;;;;;;;21.00;18.60;;;;;;;;;;5093815;28;20449;-78
2021/08/03 07:38:54;;;;;;;25.80;20.60;;;;;;;;;;5094026;28;20435;-77
2021/08/03 07:41:22;;;;;;;58.00;19.90;;;;;;;;;;5093866;28;20436;-78
2021/08/03 07:43:51;;;;;;;22.20;19.80;;;;;;;;;;5093567;28;20441;-78
2021/08/03 07:46:18;;;;;;;19.73;17.03;;;;;;;;;;5093523;28;20497;-77
2021/08/03 07:48:50;;;;;;;18.53;16.60;;;;;;;;;;5093177;28;21016;-77
2021/08/03 07:51:17;;;;;;;19.07;17.07;;;;;;;;;;5093982;28;20474;-77
2021/08/03 07:53:44;;;;;;;18.70;16.50;;;;;;;;;;5093444;28;20529;-78
2021/08/03 07:56:12;;;;;;;19.30;15.37;;;;;;;;;;5093156;28;20445;-78
2021/08/03 07:58:39;;;;;;;17.10;15.40;;;;;;;;;;5093048;28;20502;-78
2021/08/03 08:01:07;;;;;;;17.60;14.90;;;;;;;;;;5093483;28;20786;-77
2021/08/03 08:03:35;;;;;;;16.43;14.73;;;;;;;;;;5093343;28;20793;-78
2021/08/03 08:06:03;;;;;;;14.70;12.87;;;;;;;;;;5093062;28;20441;-78
2021/08/03 08:08:31;;;;;;;14.67;13.20;;;;;;;;;;5093352;28;20441;-78
2021/08/03 08:10:58;;;;;;;19.40;12.20;;;;;;;;;;5093180;28;20441;-77
2021/08/03 08:13:26;;;;;;;14.00;12.70;;;;;;;;;;5093535;28;20438;-78
2021/08/03 08:15:53;;;;;;;15.20;13.50;;;;;;;;;;5092991;28;20454;-78
2021/08/03 08:18:22;;;;;;;13.00;11.90;;;;;;;;;;5093046;28;20433;-78
2021/08/03 08:20:49;;;;;;;16.23;14.53;;;;;;;;;;5093234;28;20792;-78
2021/08/03 08:23:17;;;;;;;14.93;12.87;;;;;;;;;;5092957;28;20457;-77
2021/08/03 08:25:44;;;;;;;17.07;13.57;;;;;;;;;;5092930;28;20446;-78
2021/08/03 08:28:11;;;;;;;14.90;13.50;;;;;;;;;;5093194;28;20972;-78
2021/08/03 08:30:40;;;;;;;15.80;14.10;;;;;;;;;;5093146;28;20444;-78
2021/08/03 08:33:07;;;;;;;12.43;11.23;;;;;;;;;;5092754;28;20565;-77
2021/08/03 08:35:36;;;;;;;14.97;13.30;;;;;;;;;;5092861;28;20961;-78
2021/08/03 08:38:03;;;;;;;11.47;10.37;;;;;;;;;;5094537;28;20456;-78
2021/08/03 08:40:31;;;;;;;12.47;10.90;;;;;;;;;;5097418;28;20443;-77
2021/08/03 08:42:58;;;;;;;11.57;10.10;;;;;;;;;;5096786;28;20931;-78
2021/08/03 08:45:25;;;;;;;11.33;10.10;;;;;;;;;;5097005;28;20468;-78
2021/08/03 08:47:52;;;;;;;10.50;9.50;;;;;;;;;;5096672;28;20443;-77
2021/08/03 08:50:20;;;;;;;14.70;11.13;;;;;;;;;;5096338;28;20979;-78
2021/08/03 08:52:52;;;;;;;12.10;10.13;;;;;;;;;;5096807;28;20482;-78
2021/08/03 08:55:20;;;;;;;11.87;10.67;;;;;;;;;;5096227;28;20433;-78
2021/08/03 08:57:47;;;;;;;11.43;10.20;;;;;;;;;;5096702;28;20546;-77
2021/08/03 09:00:15;;;;;;;14.17;12.30;;;;;;;;;;5097153;28;20775;-78
2021/08/03 09:02:43;;;;;;;15.10;12.40;;;;;;;;;;5096361;28;20440;-77
2021/08/03 09:05:11;;;;;;;14.17;12.20;;;;;;;;;;5096634;28;20492;-76
2021/08/03 09:07:48;;;;;;;15.07;12.63;;;;;;;;;;5096445;28;20439;-77
2021/08/03 09:10:28;;;;;;;15.10;13.53;;;;;;;;;;5096131;28;20926;-78
2021/08/03 09:12:59;;;;;;;16.50;13.13;;;;;;;;;;5095993;28;20468;-77
2021/08/03 09:15:27;;;;;;;15.33;12.63;;;;;;;;;;5096561;28;20432;-78
2021/08/03 09:17:54;;;;;;;18.37;12.70;;;;;;;;;;5095811;28;20523;-77
2021/08/03 09:20:22;;;;;;;18.20;13.60;;;;;;;;;;5096140;28;20456;-78
2021/08/03 09:22:49;;;;;;;15.10;12.57;;;;;;;;;;5096065;28;20440;-77
2021/08/03 09:25:18;;;;;;;16.63;13.50;;;;;;;;;;5095668;28;20537;-78
2021/08/03 09:27:48;;;;;;;12.97;10.93;;;;;;;;;;5095330;28;20477;-78
2021/08/03 09:30:28;;;;;;;14.60;11.60;;;;;;;;;;5095812;28;20440;-77
2021/08/03 09:32:55;;;;;;;19.83;12.33;;;;;;;;;;5095584;28;20923;-77
2021/08/03 09:35:24;;;;;;;15.63;12.70;;;;;;;;;;5095890;28;20479;-77
2021/08/03 09:37:51;;;;;;;17.47;12.50;;;;;;;;;;5095837;28;20448;-76
2021/08/03 09:40:23;;;;;;;20.10;14.13;;;;;;;;;;5095566;28;20447;-76
2021/08/03 09:43:02;;;;;;;17.60;14.23;;;;;;;;;;5095278;28;20439;-77
2021/08/03 09:45:31;;;;;;;15.83;12.77;;;;;;;;;;5095502;28;20451;-77
2021/08/03 09:48:14;;;;;;;19.07;11.60;;;;;;;;;;5095466;28;20515;-77
2021/08/03 09:51:01;;;;;;;11.10;9.00;;;;;;;;;;5095241;28;20445;-76
2021/08/03 09:53:38;;;;;;;12.43;9.97;;;;;;;;;;5095324;28;20541;-77
2021/08/03 09:56:05;;;;;;;9.23;7.67;;;;;;;;;;5095704;28;20448;-77
2021/08/03 09:58:34;;;;;;;7.57;6.83;;;;;;;;;;5095590;28;20924;-77
2021/08/03 10:01:16;;;;;;;8.50;6.40;;;;;;;;;;5095251;28;20472;-77
2021/08/03 10:03:43;;;;;;;6.90;6.07;;;;;;;;;;5094792;28;20796;-75
2021/08/03 10:06:11;;;;;;;6.07;5.40;;;;;;;;;;5094898;28;20502;-77
2021/08/03 10:08:38;;;;;;;7.97;7.27;;;;;;;;;;5095095;28;20525;-77
2021/08/03 10:11:05;;;;;;;7.67;6.97;;;;;;;;;;5095090;28;20433;-77
2021/08/03 10:13:34;;;;;;;7.53;6.50;;;;;;;;;;5094535;28;20469;-76
2021/08/03 10:16:01;;;;;;;8.77;7.00;;;;;;;;;;5095214;28;20437;-76
2021/08/03 10:18:28;;;;;;;8.87;6.77;;;;;;;;;;5094832;28;20451;-76
2021/08/03 10:20:56;;;;;;;7.40;5.00;;;;;;;;;;5094835;28;20445;-76
2021/08/03 10:23:24;;;;;;;5.10;4.60;;;;;;;;;;5095316;28;20443;-77
2021/08/03 10:25:51;;;;;;;6.23;4.83;;;;;;;;;;5094426;28;20445;-76
2021/08/03 10:28:20;;;;;;;6.00;4.87;;;;;;;;;;5094524;28;20519;-76
2021/08/03 10:30:48;;;;;;;6.90;6.00;;;;;;;;;;5094596;28;20447;-76
2021/08/03 10:33:31;;;;;;;9.67;5.17;;;;;;;;;;5095098;28;20479;-76
2021/08/03 10:35:59;;;;;;;4.50;3.73;;;;;;;;;;5094356;28;20864;-76
2021/08/03 10:38:28;;;;;;;4.50;3.80;;;;;;;;;;5094487;28;20440;-76
2021/08/03 10:41:02;;;;;;;5.90;3.50;;;;;;;;;;5094450;28;20447;-74
2021/08/03 10:43:38;;;;;;;4.60;4.17;;;;;;;;;;5094775;28;20786;-76
2021/08/03 10:46:22;;;;;;;3.67;3.37;;;;;;;;;;5094090;28;20462;-76
2021/08/03 10:48:53;;;;;;;6.23;3.23;;;;;;;;;;5093983;28;20462;-75
2021/08/03 10:51:38;;;;;;;5.17;2.97;;;;;;;;;;5094550;28;20415;-75
2021/08/03 10:54:09;;;;;;;5.50;3.53;;;;;;;;;;5093862;28;20477;-75
2021/08/03 10:56:55;;;;;;;4.70;3.30;;;;;;;;;;5094640;28;20502;-75
2021/08/03 10:59:35;;;;;;;4.60;4.20;;;;;;;;;;5093821;28;20953;-75
2021/08/03 11:02:03;;;;;;;5.20;4.80;;;;;;;;;;5093411;28;20453;-75
2021/08/03 11:04:49;;;;;;;10.70;4.70;;;;;;;;;;5094243;28;20450;-76
2021/08/03 11:07:34;;;;;;;5.00;4.60;;;;;;;;;;5094360;28;20849;-74
2021/08/03 11:10:02;;;;;;;7.67;6.90;;;;;;;;;;5093960;28;20515;-76
2021/08/03 11:12:39;;;;;;;7.80;6.00;;;;;;;;;;5094036;28;20483;-74
2021/08/03 11:15:25;;;;;;;4.80;4.37;;;;;;;;;;5093939;28;20440;-74
2021/08/03 11:17:53;;;;;;;5.80;4.53;;;;;;;;;;5094073;28;20449;-74
2021/08/03 11:20:45;;;;;;;5.53;4.97;;;;;;;;;;5093480;28;20538;-75
2021/08/03 11:23:14;;;;;;;5.40;4.90;;;;;;;;;;5093246;28;20442;-76
2021/08/03 11:25:42;;;;;;;7.30;4.90;;;;;;;;;;5094271;28;20451;-74
2021/08/03 11:28:09;;;;;;;5.40;4.50;;;;;;;;;;5093538;28;21036;-75
2021/08/03 11:30:38;;;;;;;4.97;4.57;;;;;;;;;;5094257;28;20850;-75
2021/08/03 11:33:06;;;;;;;4.83;4.37;;;;;;;;;;5093072;28;20482;-77
2021/08/03 11:35:34;;;;;;;4.60;3.50;;;;;;;;;;5093456;28;20446;-74
2021/08/03 11:38:03;;;;;;;3.60;3.13;;;;;;;;;;5093209;28;20945;-73
2021/08/03 11:40:32;;;;;;;5.33;4.70;;;;;;;;;;5093861;28;20454;-72
2021/08/03 11:43:00;;;;;;;6.50;4.87;;;;;;;;;;5093494;28;20478;-73
2021/08/03 11:45:28;;;;;;;6.30;5.50;;;;;;;;;;5093479;28;20474;-72
2021/08/03 11:47:56;;;;;;;7.40;5.00;;;;;;;;;;5093421;28;20486;-73
2021/08/03 11:50:30;;;;;;;6.50;5.17;;;;;;;;;;5092894;28;20928;-72
2021/08/03 11:53:04;;;;;;;5.17;4.67;;;;;;;;;;5093366;28;20831;-73
2021/08/03 11:55:32;;;;;;;5.17;4.00;;;;;;;;;;5093027;28;20440;-72
2021/08/03 11:57:59;;;;;;;6.50;4.80;;;;;;;;;;5093569;28;20924;-73
2021/08/03 12:00:27;;;;;;;12.03;5.07;;;;;;;;;;5093604;28;20540;-73
2021/08/03 12:02:55;;;;;;;12.00;6.53;;;;;;;;;;5093296;28;20547;-73
2021/08/03 12:05:26;;;;;;;5.37;4.80;;;;;;;;;;5093195;28;20450;-72
2021/08/03 12:07:55;;;;;;;6.10;5.50;;;;;;;;;;5092957;28;20437;-72
2021/08/03 12:10:24;;;;;;;6.60;6.03;;;;;;;;;;5092793;28;20446;-73
2021/08/03 12:12:53;;;;;;;6.13;5.50;;;;;;;;;;5095749;28;20469;-73
2021/08/03 12:15:21;;;;;;;6.23;4.77;;;;;;;;;;5096980;28;20436;-72
2021/08/03 12:17:49;;;;;;;6.00;5.40;;;;;;;;;;5096706;28;21032;-72
2021/08/03 12:20:30;;;;;;;7.87;5.27;;;;;;;;;;5097381;28;20525;-73
2021/08/03 12:23:09;;;;;;;6.23;5.60;;;;;;;;;;5097391;28;20462;-73
2021/08/03 12:25:40;;;;;;;6.20;5.60;;;;;;;;;;5097404;28;20820;-76
2021/08/03 12:28:09;;;;;;;6.90;6.13;;;;;;;;;;5096883;28;20838;-73
2021/08/03 12:30:37;;;;;;;7.70;5.93;;;;;;;;;;5096829;28;20449;-73
2021/08/03 12:33:06;;;;;;;7.37;6.50;;;;;;;;;;5096748;28;20478;-73
2021/08/03 12:35:38;;;;;;;29.87;8.50;;;;;;;;;;5096470;28;20528;-73
2021/08/03 12:38:12;;;;;;;10.10;6.20;;;;;;;;;;5096302;28;20431;-73
2021/08/03 12:40:40;;;;;;;6.63;5.83;;;;;;;;;;5096712;28;20551;-69
2021/08/03 12:43:07;;;;;;;9.43;6.63;;;;;;;;;;5096612;28;20442;-71
2021/08/03 12:45:38;;;;;;;11.23;7.57;;;;;;;;;;5096414;28;20583;-72
2021/08/03 12:48:08;;;;;;;9.93;6.37;;;;;;;;;;5096239;28;20441;-72
2021/08/03 12:50:47;;;;;;;7.23;6.53;;;;;;;;;;5096778;28;20437;-73
2021/08/03 12:53:23;;;;;;;9.60;7.43;;;;;;;;;;5096538;28;20815;-73
2021/08/03 12:55:52;;;;;;;10.80;6.50;;;;;;;;;;5096182;28;20430;-74
2021/08/03 12:58:33;;;;;;;7.87;6.97;;;;;;;;;;5096494;28;20809;-74
2021/08/03 13:01:11;;;;;;;6.80;6.20;;;;;;;;;;5097169;28;20466;-73
2021/08/03 13:03:39;;;;;;;7.60;6.57;;;;;;;;;;5095734;28;20446;-73
2021/08/03 13:06:07;;;;;;;8.10;6.57;;;;;;;;;;5096687;28;20450;-73
2021/08/03 13:08:35;;;;;;;9.47;6.00;;;;;;;;;;5114027;28;20449;-73
2021/08/03 13:11:02;;;;;;;7.37;6.63;;;;;;;;;;5116161;28;20446;-72
2021/08/03 13:13:29;;;;;;;6.87;6.17;;;;;;;;;;5116328;27;20561;-73
2021/08/03 13:15:57;;;;;;;8.10;7.10;;;;;;;;;;5115926;28;20938;-76
2021/08/03 13:18:25;;;;;;;9.90;8.67;;;;;;;;;;5115920;28;20442;-73
2021/08/03 13:20:53;;;;;;;9.93;8.90;;;;;;;;;;5116004;28;20483;-75
2021/08/03 13:23:20;;;;;;;8.67;7.10;;;;;;;;;;5115663;28;20442;-73
2021/08/03 13:25:47;;;;;;;11.20;7.00;;;;;;;;;;5115904;28;20439;-74
2021/08/03 13:28:14;;;;;;;8.67;6.90;;;;;;;;;;5116141;28;21035;-74
2021/08/03 13:30:42;;;;;;;7.80;7.10;;;;;;;;;;5115743;28;20959;-73
2021/08/03 13:33:09;;;;;;;6.73;5.83;;;;;;;;;;5116019;28;20550;-75
2021/08/03 13:35:38;;;;;;;8.77;6.77;;;;;;;;;;5116366;28;20440;-73
2021/08/03 13:38:06;;;;;;;7.90;7.10;;;;;;;;;;5115744;28;20435;-72
2021/08/03 13:40:33;;;;;;;8.97;6.47;;;;;;;;;;5116019;28;20453;-74
2021/08/03 13:43:00;;;;;;;9.80;6.60;;;;;;;;;;5115695;28;20954;-74
2021/08/03 13:45:28;;;;;;;7.67;6.57;;;;;;;;;;5115562;27;20446;-72
2021/08/03 13:47:55;;;;;;;7.37;6.03;;;;;;;;;;5115587;28;20442;-73
2021/08/03 13:50:22;;;;;;;5.80;5.30;;;;;;;;;;5115806;28;20450;-73
2021/08/03 13:52:51;;;;;;;8.37;6.10;;;;;;;;;;5115235;28;20439;-73
2021/08/03 13:55:18;;;;;;;5.03;4.53;;;;;;;;;;5108668;28;20456;-72
2021/08/03 13:57:45;;;;;;;6.13;5.20;;;;;;;;;;5098986;28;20483;-74
2021/08/03 14:00:13;;;;;;;6.90;4.73;;;;;;;;;;5107196;28;20452;-73
2021/08/03 14:02:40;;;;;;;9.13;5.77;;;;;;;;;;5115883;28;20538;-73
2021/08/03 14:05:08;;;;;;;5.83;4.47;;;;;;;;;;5115278;28;20959;-73
2021/08/03 14:07:35;;;;;;;6.47;5.87;;;;;;;;;;5115432;28;20443;-69
2021/08/03 14:10:04;;;;;;;6.50;4.80;;;;;;;;;;5115065;28;20489;-72
2021/08/03 14:12:31;;;;;;;7.80;4.73;;;;;;;;;;5115016;28;20447;-73
2021/08/03 14:14:59;;;;;;;5.47;4.90;;;;;;;;;;5115859;28;20548;-73
2021/08/03 14:17:26;;;;;;;5.80;4.57;;;;;;;;;;5115224;28;20442;-73
2021/08/03 14:19:53;;;;;;;5.20;4.70;;;;;;;;;;5115234;28;20563;-73
2021/08/03 14:22:20;;;;;;;4.83;4.43;;;;;;;;;;5114875;28;20457;-72
2021/08/03 14:24:48;;;;;;;4.63;4.13;;;;;;;;;;5114885;28;20453;-73
2021/08/03 14:27:16;;;;;;;5.87;5.00;;;;;;;;;;5114649;28;20450;-74
2021/08/03 14:29:45;;;;;;;5.27;4.30;;;;;;;;;;5115234;28;20434;-74
2021/08/03 14:32:13;;;;;;;10.17;5.00;;;;;;;;;;5115002;28;20478;-73
2021/08/03 14:34:40;;;;;;;9.10;4.57;;;;;;;;;;5114094;28;20478;-73
2021/08/03 14:37:07;;;;;;;5.03;3.53;;;;;;;;;;5113877;28;20957;-72